sensor_id;sensor_type;location;lat;lon;timestamp;P1;durP1;ratioP1;P2;durP2;ratioP2
980;SDS011;479;53.514;9.994;2023-05-10T00:00:57;3.10;;;2.77;;
980;SDS011;479;53.514;9.994;2023-05-10T00:03:24;4.37;;;3.73;;
980;SDS011;479;53.514;9.994;2023-05-10T00:05:51;4.40;;;2.93;;
980;SDS011;479;53.514;9.994;2023-05-10T00:08:19;3.73;;;3.43;;
980;SDS011;479;53.514;9.994;2023-05-10T00:10:52;3.77;;;3.07;;
980;SDS011;479;53.514;9.994;2023-05-10T00:13:42;4.43;;;4.03;;
980;SDS011;479;53.514;9.994;2023-05-10T00:16:09;4.43;;;3.77;;
980;SDS011;479;53.514;9.994;2023-05-10T00:18:38;4.50;;;3.20;;
980;SDS011;479;53.514;9.994;2023-05-10T00:21:05;4.03;;;3.73;;
980;SDS011;479;53.514;9.994;2023-05-10T00:23:33;3.47;;;2.53;;
980;SDS011;479;53.514;9.994;2023-05-10T00:26:00;3.63;;;3.30;;
980;SDS011;479;53.514;9.994;2023-05-10T00:28:27;4.17;;;3.10;;
980;SDS011;479;53.514;9.994;2023-05-10T00:30:55;3.73;;;3.43;;
980;SDS011;479;53.514;9.994;2023-05-10T00:33:22;3.50;;;3.20;;
980;SDS011;479;53.514;9.994;2023-05-10T00:35:49;3.57;;;3.33;;
980;SDS011;479;53.514;9.994;2023-05-10T00:38:16;4.10;;;3.73;;
980;SDS011;479;53.514;9.994;2023-05-10T00:40:44;3.70;;;3.40;;
980;SDS011;479;53.514;9.994;2023-05-10T00:43:19;4.17;;;3.80;;
980;SDS011;479;53.514;9.994;2023-05-10T00:45:46;4.10;;;3.70;;
980;SDS011;479;53.514;9.994;2023-05-10T00:48:13;3.57;;;3.30;;
980;SDS011;479;53.514;9.994;2023-05-10T00:50:40;4.30;;;3.90;;
980;SDS011;479;53.514;9.994;2023-05-10T00:53:07;3.33;;;3.13;;
980;SDS011;479;53.514;9.994;2023-05-10T00:55:35;5.40;;;3.87;;
980;SDS011;479;53.514;9.994;2023-05-10T00:58:04;4.40;;;3.70;;
980;SDS011;479;53.514;9.994;2023-05-10T01:00:32;11.13;;;3.90;;
980;SDS011;479;53.514;9.994;2023-05-10T01:02:59;3.57;;;3.27;;
980;SDS011;479;53.514;9.994;2023-05-10T01:05:26;3.70;;;3.50;;
980;SDS011;479;53.514;9.994;2023-05-10T01:07:53;4.57;;;4.17;;
980;SDS011;479;53.514;9.994;2023-05-10T01:10:20;4.60;;;4.20;;
980;SDS011;479;53.514;9.994;2023-05-10T01:12:47;4.07;;;3.77;;
980;SDS011;479;53.514;9.994;2023-05-10T01:15:15;3.80;;;3.50;;
980;SDS011;479;53.514;9.994;2023-05-10T01:17:44;8.30;;;4.80;;
980;SDS011;479;53.514;9.994;2023-05-10T01:20:12;4.70;;;4.30;;
980;SDS011;479;53.514;9.994;2023-05-10T01:23:04;4.27;;;3.87;;
980;SDS011;479;53.514;9.994;2023-05-10T01:26:13;3.53;;;3.23;;
980;SDS011;479;53.514;9.994;2023-05-10T01:29:00;4.47;;;3.53;;
980;SDS011;479;53.514;9.994;2023-05-10T01:34:42;4.20;;;3.80;;
980;SDS011;479;53.514;9.994;2023-05-10T01:37:15;5.47;;;4.03;;
980;SDS011;479;53.514;9.994;2023-05-10T01:39:47;5.77;;;4.00;;
980;SDS011;479;53.514;9.994;2023-05-10T01:42:25;3.97;;;3.67;;
980;SDS011;479;53.514;9.994;2023-05-10T01:44:58;5.23;;;4.00;;
980;SDS011;479;53.514;9.994;2023-05-10T01:47:37;4.40;;;4.00;;
980;SDS011;479;53.514;9.994;2023-05-10T01:50:14;4.93;;;3.77;;
980;SDS011;479;53.514;9.994;2023-05-10T01:52:44;3.83;;;3.47;;
980;SDS011;479;53.514;9.994;2023-05-10T01:55:18;5.43;;;4.20;;
980;SDS011;479;53.514;9.994;2023-05-10T01:57:52;5.50;;;3.90;;
980;SDS011;479;53.514;9.994;2023-05-10T02:00:27;5.00;;;4.47;;
980;SDS011;479;53.514;9.994;2023-05-10T02:02:56;4.10;;;3.70;;
980;SDS011;479;53.514;9.994;2023-05-10T02:05:24;4.53;;;3.97;;
980;SDS011;479;53.514;9.994;2023-05-10T02:07:52;4.70;;;4.30;;
980;SDS011;479;53.514;9.994;2023-05-10T02:10:20;9.60;;;4.17;;
980;SDS011;479;53.514;9.994;2023-05-10T02:12:47;4.27;;;3.87;;
980;SDS011;479;53.514;9.994;2023-05-10T02:15:17;4.50;;;3.60;;
980;SDS011;479;53.514;9.994;2023-05-10T02:17:46;6.07;;;3.97;;
980;SDS011;479;53.514;9.994;2023-05-10T02:20:15;4.20;;;3.80;;
980;SDS011;479;53.514;9.994;2023-05-10T02:22:45;4.40;;;3.73;;
980;SDS011;479;53.514;9.994;2023-05-10T02:25:15;6.20;;;3.60;;
980;SDS011;479;53.514;9.994;2023-05-10T02:27:43;4.90;;;3.90;;
980;SDS011;479;53.514;9.994;2023-05-10T02:30:12;5.83;;;3.93;;
980;SDS011;479;53.514;9.994;2023-05-10T02:32:39;4.93;;;3.80;;
980;SDS011;479;53.514;9.994;2023-05-10T02:35:08;4.33;;;3.30;;
980;SDS011;479;53.514;9.994;2023-05-10T02:37:38;4.37;;;3.97;;
980;SDS011;479;53.514;9.994;2023-05-10T02:40:06;4.57;;;4.17;;
980;SDS011;479;53.514;9.994;2023-05-10T02:42:35;4.10;;;3.80;;
980;SDS011;479;53.514;9.994;2023-05-10T02:45:05;4.20;;;3.90;;
980;SDS011;479;53.514;9.994;2023-05-10T02:47:37;2.90;;;2.70;;
980;SDS011;479;53.514;9.994;2023-05-10T02:50:04;4.87;;;4.03;;
980;SDS011;479;53.514;9.994;2023-05-10T02:52:36;7.30;;;4.37;;
980;SDS011;479;53.514;9.994;2023-05-10T02:55:08;4.00;;;3.70;;
980;SDS011;479;53.514;9.994;2023-05-10T02:57:38;4.30;;;3.90;;
980;SDS011;479;53.514;9.994;2023-05-10T03:00:09;5.17;;;4.70;;
980;SDS011;479;53.514;9.994;2023-05-10T03:02:37;5.00;;;3.97;;
980;SDS011;479;53.514;9.994;2023-05-10T03:05:04;4.87;;;4.40;;
980;SDS011;479;53.514;9.994;2023-05-10T03:07:32;4.10;;;3.80;;
980;SDS011;479;53.514;9.994;2023-05-10T03:10:00;6.73;;;4.57;;
980;SDS011;479;53.514;9.994;2023-05-10T03:12:31;4.47;;;3.77;;
980;SDS011;479;53.514;9.994;2023-05-10T03:15:11;5.93;;;4.10;;
980;SDS011;479;53.514;9.994;2023-05-10T03:17:51;5.10;;;4.70;;
980;SDS011;479;53.514;9.994;2023-05-10T03:20:24;4.50;;;4.10;;
980;SDS011;479;53.514;9.994;2023-05-10T03:22:55;5.10;;;4.60;;
980;SDS011;479;53.514;9.994;2023-05-10T03:25:32;4.70;;;4.30;;
980;SDS011;479;53.514;9.994;2023-05-10T03:28:01;4.23;;;3.90;;
980;SDS011;479;53.514;9.994;2023-05-10T03:30:30;4.30;;;4.00;;
980;SDS011;479;53.514;9.994;2023-05-10T03:33:03;4.00;;;3.60;;
980;SDS011;479;53.514;9.994;2023-05-10T03:35:31;4.40;;;3.90;;
980;SDS011;479;53.514;9.994;2023-05-10T03:37:58;5.57;;;4.07;;
980;SDS011;479;53.514;9.994;2023-05-10T03:40:25;4.97;;;4.57;;
980;SDS011;479;53.514;9.994;2023-05-10T03:42:55;4.13;;;3.73;;
980;SDS011;479;53.514;9.994;2023-05-10T03:45:22;5.07;;;4.00;;
980;SDS011;479;53.514;9.994;2023-05-10T03:47:49;4.40;;;4.00;;
980;SDS011;479;53.514;9.994;2023-05-10T03:50:16;6.20;;;4.03;;
980;SDS011;479;53.514;9.994;2023-05-10T03:52:43;4.57;;;4.17;;
980;SDS011;479;53.514;9.994;2023-05-10T03:55:10;5.77;;;4.27;;
980;SDS011;479;53.514;9.994;2023-05-10T03:57:37;3.93;;;3.63;;
980;SDS011;479;53.514;9.994;2023-05-10T04:00:07;5.53;;;4.30;;
980;SDS011;479;53.514;9.994;2023-05-10T04:02:41;4.60;;;4.17;;
980;SDS011;479;53.514;9.994;2023-05-10T04:05:12;4.50;;;3.47;;
980;SDS011;479;53.514;9.994;2023-05-10T04:07:40;5.70;;;4.40;;
980;SDS011;479;53.514;9.994;2023-05-10T04:10:07;4.80;;;4.27;;
980;SDS011;479;53.514;9.994;2023-05-10T04:12:34;4.03;;;3.63;;
980;SDS011;479;53.514;9.994;2023-05-10T04:15:01;4.53;;;4.13;;
980;SDS011;479;53.514;9.994;2023-05-10T04:17:30;5.33;;;4.10;;
980;SDS011;479;53.514;9.994;2023-05-10T04:19:57;4.47;;;4.07;;
980;SDS011;479;53.514;9.994;2023-05-10T04:22:24;3.80;;;3.50;;
980;SDS011;479;53.514;9.994;2023-05-10T04:24:51;4.40;;;4.10;;
980;SDS011;479;53.514;9.994;2023-05-10T04:27:17;9.80;;;4.10;;
980;SDS011;479;53.514;9.994;2023-05-10T04:29:44;5.33;;;3.87;;
980;SDS011;479;53.514;9.994;2023-05-10T04:32:11;4.30;;;3.63;;
980;SDS011;479;53.514;9.994;2023-05-10T04:34:40;4.70;;;4.00;;
980;SDS011;479;53.514;9.994;2023-05-10T04:37:06;4.97;;;3.57;;
980;SDS011;479;53.514;9.994;2023-05-10T04:39:33;6.17;;;4.43;;
980;SDS011;479;53.514;9.994;2023-05-10T04:42:00;4.50;;;4.10;;
980;SDS011;479;53.514;9.994;2023-05-10T04:44:30;5.50;;;4.50;;
980;SDS011;479;53.514;9.994;2023-05-10T04:46:58;3.97;;;3.67;;
980;SDS011;479;53.514;9.994;2023-05-10T04:49:27;4.73;;;4.30;;
980;SDS011;479;53.514;9.994;2023-05-10T04:51:56;4.17;;;3.63;;
980;SDS011;479;53.514;9.994;2023-05-10T04:54:23;4.63;;;4.07;;
980;SDS011;479;53.514;9.994;2023-05-10T04:56:50;4.63;;;4.13;;
980;SDS011;479;53.514;9.994;2023-05-10T04:59:16;4.07;;;3.70;;
980;SDS011;479;53.514;9.994;2023-05-10T05:01:43;5.33;;;4.23;;
980;SDS011;479;53.514;9.994;2023-05-10T05:04:10;8.97;;;4.80;;
980;SDS011;479;53.514;9.994;2023-05-10T05:06:37;5.10;;;3.63;;
980;SDS011;479;53.514;9.994;2023-05-10T05:09:05;3.67;;;3.30;;
980;SDS011;479;53.514;9.994;2023-05-10T05:11:32;4.33;;;3.93;;
980;SDS011;479;53.514;9.994;2023-05-10T05:13:59;4.20;;;3.80;;
980;SDS011;479;53.514;9.994;2023-05-10T05:16:26;4.20;;;3.27;;
980;SDS011;479;53.514;9.994;2023-05-10T05:18:53;4.40;;;3.77;;
980;SDS011;479;53.514;9.994;2023-05-10T05:21:21;4.30;;;3.90;;
980;SDS011;479;53.514;9.994;2023-05-10T05:23:49;4.20;;;3.90;;
980;SDS011;479;53.514;9.994;2023-05-10T05:26:17;5.00;;;4.30;;
980;SDS011;479;53.514;9.994;2023-05-10T05:28:44;4.20;;;3.80;;
980;SDS011;479;53.514;9.994;2023-05-10T05:31:11;5.17;;;4.77;;
980;SDS011;479;53.514;9.994;2023-05-10T05:33:39;5.40;;;4.90;;
980;SDS011;479;53.514;9.994;2023-05-10T05:36:06;4.20;;;3.80;;
980;SDS011;479;53.514;9.994;2023-05-10T05:38:33;3.90;;;3.60;;
980;SDS011;479;53.514;9.994;2023-05-10T05:41:00;5.20;;;3.43;;
980;SDS011;479;53.514;9.994;2023-05-10T05:43:28;5.50;;;3.53;;
980;SDS011;479;53.514;9.994;2023-05-10T05:45:55;4.23;;;3.87;;
980;SDS011;479;53.514;9.994;2023-05-10T05:48:23;8.43;;;3.67;;
980;SDS011;479;53.514;9.994;2023-05-10T05:50:50;5.37;;;4.87;;
980;SDS011;479;53.514;9.994;2023-05-10T05:53:21;5.53;;;3.90;;
980;SDS011;479;53.514;9.994;2023-05-10T05:55:51;6.43;;;4.50;;
980;SDS011;479;53.514;9.994;2023-05-10T05:58:19;3.93;;;3.63;;
980;SDS011;479;53.514;9.994;2023-05-10T06:00:47;5.53;;;4.90;;
980;SDS011;479;53.514;9.994;2023-05-10T06:03:14;4.37;;;3.97;;
980;SDS011;479;53.514;9.994;2023-05-10T06:05:41;4.97;;;4.47;;
980;SDS011;479;53.514;9.994;2023-05-10T06:08:08;5.10;;;4.60;;
980;SDS011;479;53.514;9.994;2023-05-10T06:10:35;4.30;;;3.90;;
980;SDS011;479;53.514;9.994;2023-05-10T06:13:02;6.80;;;4.30;;
980;SDS011;479;53.514;9.994;2023-05-10T06:15:29;4.37;;;3.97;;
980;SDS011;479;53.514;9.994;2023-05-10T06:17:58;5.33;;;4.27;;
980;SDS011;479;53.514;9.994;2023-05-10T06:20:25;4.83;;;4.37;;
980;SDS011;479;53.514;9.994;2023-05-10T06:22:53;4.30;;;4.00;;
980;SDS011;479;53.514;9.994;2023-05-10T06:25:20;4.80;;;4.30;;
980;SDS011;479;53.514;9.994;2023-05-10T06:27:47;3.80;;;3.00;;
980;SDS011;479;53.514;9.994;2023-05-10T06:30:14;4.50;;;4.10;;
980;SDS011;479;53.514;9.994;2023-05-10T06:32:41;5.20;;;4.70;;
980;SDS011;479;53.514;9.994;2023-05-10T06:35:10;4.67;;;4.27;;
980;SDS011;479;53.514;9.994;2023-05-10T06:37:37;4.97;;;4.23;;
980;SDS011;479;53.514;9.994;2023-05-10T06:40:05;4.60;;;4.20;;
980;SDS011;479;53.514;9.994;2023-05-10T06:42:34;5.40;;;4.90;;
980;SDS011;479;53.514;9.994;2023-05-10T06:45:02;6.23;;;5.30;;
980;SDS011;479;53.514;9.994;2023-05-10T06:47:30;5.07;;;4.37;;
980;SDS011;479;53.514;9.994;2023-05-10T06:49:57;5.00;;;4.60;;
980;SDS011;479;53.514;9.994;2023-05-10T06:52:26;4.17;;;3.80;;
980;SDS011;479;53.514;9.994;2023-05-10T06:54:53;4.93;;;4.50;;
980;SDS011;479;53.514;9.994;2023-05-10T06:57:20;4.00;;;3.50;;
980;SDS011;479;53.514;9.994;2023-05-10T06:59:47;5.97;;;5.17;;
980;SDS011;479;53.514;9.994;2023-05-10T07:02:14;4.53;;;4.13;;
980;SDS011;479;53.514;9.994;2023-05-10T07:04:42;4.70;;;4.27;;
980;SDS011;479;53.514;9.994;2023-05-10T07:07:08;4.73;;;4.33;;
980;SDS011;479;53.514;9.994;2023-05-10T07:09:37;4.93;;;4.30;;
980;SDS011;479;53.514;9.994;2023-05-10T07:12:04;4.10;;;3.80;;
980;SDS011;479;53.514;9.994;2023-05-10T07:14:31;3.70;;;3.40;;
980;SDS011;479;53.514;9.994;2023-05-10T07:16:58;6.77;;;3.90;;
980;SDS011;479;53.514;9.994;2023-05-10T07:19:25;4.53;;;4.13;;
980;SDS011;479;53.514;9.994;2023-05-10T07:21:54;8.60;;;4.13;;
980;SDS011;479;53.514;9.994;2023-05-10T07:24:21;5.80;;;4.57;;
980;SDS011;479;53.514;9.994;2023-05-10T07:26:49;3.87;;;3.43;;
980;SDS011;479;53.514;9.994;2023-05-10T07:29:16;4.40;;;4.10;;
980;SDS011;479;53.514;9.994;2023-05-10T07:31:43;5.37;;;4.87;;
980;SDS011;479;53.514;9.994;2023-05-10T07:34:10;4.50;;;4.13;;
980;SDS011;479;53.514;9.994;2023-05-10T07:36:37;5.13;;;4.73;;
980;SDS011;479;53.514;9.994;2023-05-10T07:39:04;4.50;;;3.90;;
980;SDS011;479;53.514;9.994;2023-05-10T07:41:31;4.30;;;3.90;;
980;SDS011;479;53.514;9.994;2023-05-10T07:44:00;4.20;;;3.80;;
980;SDS011;479;53.514;9.994;2023-05-10T07:46:27;4.47;;;4.07;;
980;SDS011;479;53.514;9.994;2023-05-10T07:48:54;4.43;;;3.50;;
980;SDS011;479;53.514;9.994;2023-05-10T07:51:21;4.50;;;4.10;;
980;SDS011;479;53.514;9.994;2023-05-10T07:53:50;4.63;;;4.33;;
980;SDS011;479;53.514;9.994;2023-05-10T07:56:21;5.50;;;5.00;;
980;SDS011;479;53.514;9.994;2023-05-10T07:58:51;5.13;;;4.73;;
980;SDS011;479;53.514;9.994;2023-05-10T08:01:20;5.57;;;5.07;;
980;SDS011;479;53.514;9.994;2023-05-10T08:03:47;4.53;;;3.80;;
980;SDS011;479;53.514;9.994;2023-05-10T08:06:14;5.77;;;4.60;;
980;SDS011;479;53.514;9.994;2023-05-10T08:08:41;3.87;;;3.57;;
980;SDS011;479;53.514;9.994;2023-05-10T08:11:08;5.20;;;4.70;;
980;SDS011;479;53.514;9.994;2023-05-10T08:13:35;4.17;;;3.87;;
980;SDS011;479;53.514;9.994;2023-05-10T08:16:02;5.37;;;4.50;;
980;SDS011;479;53.514;9.994;2023-05-10T08:18:30;5.40;;;4.40;;
980;SDS011;479;53.514;9.994;2023-05-10T08:20:57;6.33;;;5.00;;
980;SDS011;479;53.514;9.994;2023-05-10T08:23:24;5.87;;;4.90;;
980;SDS011;479;53.514;9.994;2023-05-10T08:25:51;4.77;;;4.17;;
980;SDS011;479;53.514;9.994;2023-05-10T08:28:18;6.10;;;4.47;;
980;SDS011;479;53.514;9.994;2023-05-10T08:30:45;5.70;;;5.20;;
980;SDS011;479;53.514;9.994;2023-05-10T08:33:12;5.67;;;4.60;;
980;SDS011;479;53.514;9.994;2023-05-10T08:35:40;6.47;;;4.87;;
980;SDS011;479;53.514;9.994;2023-05-10T08:38:07;4.93;;;4.50;;
980;SDS011;479;53.514;9.994;2023-05-10T08:40:34;5.60;;;4.90;;
980;SDS011;479;53.514;9.994;2023-05-10T08:43:04;5.10;;;4.63;;
980;SDS011;479;53.514;9.994;2023-05-10T08:45:33;5.90;;;4.60;;
980;SDS011;479;53.514;9.994;2023-05-10T08:48:04;5.00;;;4.53;;
980;SDS011;479;53.514;9.994;2023-05-10T08:50:34;6.13;;;4.83;;
980;SDS011;479;53.514;9.994;2023-05-10T08:53:03;6.53;;;4.43;;
980;SDS011;479;53.514;9.994;2023-05-10T08:55:32;4.73;;;4.33;;
980;SDS011;479;53.514;9.994;2023-05-10T08:58:01;5.13;;;4.63;;
980;SDS011;479;53.514;9.994;2023-05-10T09:00:29;5.30;;;4.70;;
980;SDS011;479;53.514;9.994;2023-05-10T09:02:56;4.93;;;4.50;;
980;SDS011;479;53.514;9.994;2023-05-10T09:05:24;5.50;;;4.90;;
980;SDS011;479;53.514;9.994;2023-05-10T09:07:51;10.60;;;5.00;;
980;SDS011;479;53.514;9.994;2023-05-10T09:10:20;5.30;;;4.80;;
980;SDS011;479;53.514;9.994;2023-05-10T09:12:47;5.10;;;4.70;;
980;SDS011;479;53.514;9.994;2023-05-10T09:15:15;5.97;;;4.80;;
980;SDS011;479;53.514;9.994;2023-05-10T09:17:44;5.97;;;4.80;;
980;SDS011;479;53.514;9.994;2023-05-10T09:20:12;6.50;;;5.00;;
980;SDS011;479;53.514;9.994;2023-05-10T09:22:39;5.33;;;4.93;;
980;SDS011;479;53.514;9.994;2023-05-10T09:25:06;5.43;;;4.93;;
980;SDS011;479;53.514;9.994;2023-05-10T09:27:36;5.80;;;5.10;;
980;SDS011;479;53.514;9.994;2023-05-10T09:30:04;5.30;;;4.80;;
980;SDS011;479;53.514;9.994;2023-05-10T09:32:35;8.73;;;5.70;;
980;SDS011;479;53.514;9.994;2023-05-10T09:35:07;6.17;;;5.57;;
980;SDS011;479;53.514;9.994;2023-05-10T09:37:35;6.13;;;5.63;;
980;SDS011;479;53.514;9.994;2023-05-10T09:40:04;14.67;;;7.80;;
980;SDS011;479;53.514;9.994;2023-05-10T09:42:33;15.67;;;6.13;;
980;SDS011;479;53.514;9.994;2023-05-10T09:45:02;8.00;;;5.30;;
980;SDS011;479;53.514;9.994;2023-05-10T09:47:37;7.70;;;6.10;;
980;SDS011;479;53.514;9.994;2023-05-10T09:50:05;6.93;;;6.33;;
980;SDS011;479;53.514;9.994;2023-05-10T09:52:45;6.83;;;6.13;;
980;SDS011;479;53.514;9.994;2023-05-10T09:55:13;8.67;;;6.47;;
980;SDS011;479;53.514;9.994;2023-05-10T09:57:40;13.10;;;9.07;;
980;SDS011;479;53.514;9.994;2023-05-10T10:00:10;8.30;;;7.13;;
980;SDS011;479;53.514;9.994;2023-05-10T10:02:43;6.30;;;5.70;;
980;SDS011;479;53.514;9.994;2023-05-10T10:05:12;8.30;;;7.40;;
980;SDS011;479;53.514;9.994;2023-05-10T10:07:43;6.13;;;5.50;;
980;SDS011;479;53.514;9.994;2023-05-10T10:10:11;8.50;;;7.03;;
980;SDS011;479;53.514;9.994;2023-05-10T10:12:39;6.70;;;5.20;;
980;SDS011;479;53.514;9.994;2023-05-10T10:15:25;7.23;;;6.33;;
980;SDS011;479;53.514;9.994;2023-05-10T10:18:04;7.43;;;6.70;;
980;SDS011;479;53.514;9.994;2023-05-10T10:20:32;7.60;;;6.43;;
980;SDS011;479;53.514;9.994;2023-05-10T10:22:59;7.03;;;6.37;;
980;SDS011;479;53.514;9.994;2023-05-10T10:25:26;9.17;;;7.60;;
980;SDS011;479;53.514;9.994;2023-05-10T10:27:59;6.50;;;5.90;;
980;SDS011;479;53.514;9.994;2023-05-10T10:30:41;6.20;;;5.60;;
980;SDS011;479;53.514;9.994;2023-05-10T10:33:18;8.80;;;7.40;;
980;SDS011;479;53.514;9.994;2023-05-10T10:36:06;6.60;;;5.90;;
980;SDS011;479;53.514;9.994;2023-05-10T10:38:37;7.67;;;6.87;;
980;SDS011;479;53.514;9.994;2023-05-10T10:41:27;7.90;;;6.77;;
980;SDS011;479;53.514;9.994;2023-05-10T10:46:59;7.83;;;6.57;;
980;SDS011;479;53.514;9.994;2023-05-10T10:49:49;9.00;;;7.50;;
980;SDS011;479;53.514;9.994;2023-05-10T10:52:24;8.50;;;6.37;;
980;SDS011;479;53.514;9.994;2023-05-10T10:54:58;9.90;;;8.00;;
980;SDS011;479;53.514;9.994;2023-05-10T10:57:31;6.80;;;6.20;;
980;SDS011;479;53.514;9.994;2023-05-10T11:02:46;7.73;;;7.03;;
980;SDS011;479;53.514;9.994;2023-05-10T11:08:18;7.87;;;7.00;;
980;SDS011;479;53.514;9.994;2023-05-10T11:10:51;12.97;;;8.33;;
980;SDS011;479;53.514;9.994;2023-05-10T11:13:26;8.13;;;7.30;;
980;SDS011;479;53.514;9.994;2023-05-10T11:15:55;9.33;;;7.87;;
980;SDS011;479;53.514;9.994;2023-05-10T11:18:26;7.67;;;6.97;;
980;SDS011;479;53.514;9.994;2023-05-10T11:20:56;7.47;;;6.67;;
980;SDS011;479;53.514;9.994;2023-05-10T11:23:29;8.03;;;6.73;;
980;SDS011;479;53.514;9.994;2023-05-10T11:25:57;9.37;;;6.70;;
980;SDS011;479;53.514;9.994;2023-05-10T11:28:25;7.13;;;6.43;;
980;SDS011;479;53.514;9.994;2023-05-10T11:30:53;8.70;;;7.80;;
980;SDS011;479;53.514;9.994;2023-05-10T11:33:22;8.37;;;7.47;;
980;SDS011;479;53.514;9.994;2023-05-10T11:35:50;19.80;;;9.63;;
980;SDS011;479;53.514;9.994;2023-05-10T11:38:19;8.00;;;7.20;;
980;SDS011;479;53.514;9.994;2023-05-10T11:40:46;8.33;;;7.23;;
980;SDS011;479;53.514;9.994;2023-05-10T11:43:18;8.13;;;7.33;;
980;SDS011;479;53.514;9.994;2023-05-10T11:45:45;9.63;;;7.60;;
980;SDS011;479;53.514;9.994;2023-05-10T11:48:12;13.43;;;8.17;;
980;SDS011;479;53.514;9.994;2023-05-10T11:50:39;17.90;;;13.17;;
980;SDS011;479;53.514;9.994;2023-05-10T11:53:10;8.90;;;7.70;;
980;SDS011;479;53.514;9.994;2023-05-10T11:55:36;8.53;;;7.63;;
980;SDS011;479;53.514;9.994;2023-05-10T11:58:03;23.30;;;10.63;;
980;SDS011;479;53.514;9.994;2023-05-10T12:00:30;11.57;;;8.50;;
980;SDS011;479;53.514;9.994;2023-05-10T12:02:59;7.90;;;6.70;;
980;SDS011;479;53.514;9.994;2023-05-10T12:05:27;8.03;;;7.27;;
980;SDS011;479;53.514;9.994;2023-05-10T12:10:41;9.37;;;7.50;;
980;SDS011;479;53.514;9.994;2023-05-10T12:13:11;16.60;;;9.67;;
980;SDS011;479;53.514;9.994;2023-05-10T12:15:40;15.67;;;9.20;;
980;SDS011;479;53.514;9.994;2023-05-10T12:18:08;32.40;;;11.37;;
980;SDS011;479;53.514;9.994;2023-05-10T12:20:36;9.40;;;8.50;;
980;SDS011;479;53.514;9.994;2023-05-10T12:23:04;12.37;;;7.77;;
980;SDS011;479;53.514;9.994;2023-05-10T12:25:33;21.53;;;9.00;;
980;SDS011;479;53.514;9.994;2023-05-10T12:28:03;15.87;;;7.63;;
980;SDS011;479;53.514;9.994;2023-05-10T12:30:31;12.40;;;8.07;;
980;SDS011;479;53.514;9.994;2023-05-10T12:32:59;8.77;;;7.47;;
980;SDS011;479;53.514;9.994;2023-05-10T12:35:29;8.33;;;7.47;;
980;SDS011;479;53.514;9.994;2023-05-10T12:37:57;10.90;;;9.40;;
980;SDS011;479;53.514;9.994;2023-05-10T12:40:24;7.37;;;6.63;;
980;SDS011;479;53.514;9.994;2023-05-10T12:42:52;7.27;;;6.20;;
980;SDS011;479;53.514;9.994;2023-05-10T12:45:19;8.27;;;6.97;;
980;SDS011;479;53.514;9.994;2023-05-10T12:47:47;8.40;;;6.73;;
980;SDS011;479;53.514;9.994;2023-05-10T12:50:14;9.07;;;6.50;;
980;SDS011;479;53.514;9.994;2023-05-10T12:52:41;6.33;;;5.73;;
980;SDS011;479;53.514;9.994;2023-05-10T12:55:07;6.20;;;5.60;;
980;SDS011;479;53.514;9.994;2023-05-10T12:57:35;6.47;;;5.17;;
980;SDS011;479;53.514;9.994;2023-05-10T13:00:03;6.87;;;6.13;;
980;SDS011;479;53.514;9.994;2023-05-10T13:02:32;6.47;;;5.73;;
980;SDS011;479;53.514;9.994;2023-05-10T13:04:58;5.87;;;5.30;;
980;SDS011;479;53.514;9.994;2023-05-10T13:07:26;7.50;;;6.50;;
980;SDS011;479;53.514;9.994;2023-05-10T13:09:53;7.33;;;5.77;;
980;SDS011;479;53.514;9.994;2023-05-10T13:12:19;6.70;;;6.10;;
980;SDS011;479;53.514;9.994;2023-05-10T13:14:46;5.67;;;5.07;;
980;SDS011;479;53.514;9.994;2023-05-10T13:17:15;9.73;;;6.03;;
980;SDS011;479;53.514;9.994;2023-05-10T13:19:42;7.43;;;6.00;;
980;SDS011;479;53.514;9.994;2023-05-10T13:22:09;6.53;;;6.03;;
980;SDS011;479;53.514;9.994;2023-05-10T13:24:35;8.10;;;6.00;;
980;SDS011;479;53.514;9.994;2023-05-10T13:27:02;8.77;;;5.73;;
980;SDS011;479;53.514;9.994;2023-05-10T13:29:29;11.73;;;5.77;;
980;SDS011;479;53.514;9.994;2023-05-10T13:31:57;6.43;;;5.83;;
980;SDS011;479;53.514;9.994;2023-05-10T13:34:25;21.93;;;7.70;;
980;SDS011;479;53.514;9.994;2023-05-10T13:36:52;6.77;;;5.63;;
980;SDS011;479;53.514;9.994;2023-05-10T13:39:21;7.00;;;5.80;;
980;SDS011;479;53.514;9.994;2023-05-10T13:41:48;6.93;;;6.10;;
980;SDS011;479;53.514;9.994;2023-05-10T13:44:15;6.87;;;6.17;;
980;SDS011;479;53.514;9.994;2023-05-10T13:46:42;6.00;;;5.40;;
980;SDS011;479;53.514;9.994;2023-05-10T13:49:09;6.50;;;5.87;;
980;SDS011;479;53.514;9.994;2023-05-10T13:51:38;7.13;;;6.53;;
980;SDS011;479;53.514;9.994;2023-05-10T13:54:05;6.27;;;5.67;;
980;SDS011;479;53.514;9.994;2023-05-10T13:56:32;6.70;;;5.93;;
980;SDS011;479;53.514;9.994;2023-05-10T13:58:59;8.35;;;6.60;;
980;SDS011;479;53.514;9.994;2023-05-10T14:01:27;5.73;;;5.23;;
980;SDS011;479;53.514;9.994;2023-05-10T14:03:54;5.93;;;5.30;;
980;SDS011;479;53.514;9.994;2023-05-10T14:06:21;6.37;;;5.60;;
980;SDS011;479;53.514;9.994;2023-05-10T14:08:49;6.13;;;5.40;;
980;SDS011;479;53.514;9.994;2023-05-10T14:11:16;7.03;;;6.33;;
980;SDS011;479;53.514;9.994;2023-05-10T14:13:43;6.20;;;5.60;;
980;SDS011;479;53.514;9.994;2023-05-10T14:16:09;7.70;;;5.80;;
980;SDS011;479;53.514;9.994;2023-05-10T14:18:36;6.80;;;5.50;;
980;SDS011;479;53.514;9.994;2023-05-10T14:21:03;8.43;;;5.80;;
980;SDS011;479;53.514;9.994;2023-05-10T14:23:30;6.60;;;6.00;;
980;SDS011;479;53.514;9.994;2023-05-10T14:25:58;6.60;;;6.00;;
980;SDS011;479;53.514;9.994;2023-05-10T14:28:25;6.20;;;5.63;;
980;SDS011;479;53.514;9.994;2023-05-10T14:30:52;7.40;;;6.70;;
980;SDS011;479;53.514;9.994;2023-05-10T14:33:19;5.77;;;5.27;;
980;SDS011;479;53.514;9.994;2023-05-10T14:35:46;5.87;;;5.27;;
980;SDS011;479;53.514;9.994;2023-05-10T14:38:14;8.97;;;7.27;;
980;SDS011;479;53.514;9.994;2023-05-10T14:40:41;6.77;;;6.10;;
980;SDS011;479;53.514;9.994;2023-05-10T14:43:09;7.20;;;6.07;;
980;SDS011;479;53.514;9.994;2023-05-10T14:45:36;6.00;;;5.40;;
980;SDS011;479;53.514;9.994;2023-05-10T14:48:03;7.03;;;6.33;;
980;SDS011;479;53.514;9.994;2023-05-10T14:50:30;7.37;;;6.47;;
980;SDS011;479;53.514;9.994;2023-05-10T14:52:58;6.73;;;6.03;;
980;SDS011;479;53.514;9.994;2023-05-10T14:55:25;6.43;;;5.83;;
980;SDS011;479;53.514;9.994;2023-05-10T14:57:52;6.93;;;6.23;;
980;SDS011;479;53.514;9.994;2023-05-10T15:00:21;7.57;;;6.73;;
980;SDS011;479;53.514;9.994;2023-05-10T15:02:48;7.30;;;6.50;;
980;SDS011;479;53.514;9.994;2023-05-10T15:05:15;6.30;;;5.33;;
980;SDS011;479;53.514;9.994;2023-05-10T15:07:42;7.10;;;6.40;;
980;SDS011;479;53.514;9.994;2023-05-10T15:10:09;6.27;;;5.50;;
980;SDS011;479;53.514;9.994;2023-05-10T15:12:37;7.00;;;6.30;;
980;SDS011;479;53.514;9.994;2023-05-10T15:15:04;7.33;;;6.10;;
980;SDS011;479;53.514;9.994;2023-05-10T15:17:36;6.17;;;5.57;;
980;SDS011;479;53.514;9.994;2023-05-10T15:20:03;6.70;;;6.07;;
980;SDS011;479;53.514;9.994;2023-05-10T15:22:31;6.90;;;5.80;;
980;SDS011;479;53.514;9.994;2023-05-10T15:24:58;4.90;;;4.40;;
980;SDS011;479;53.514;9.994;2023-05-10T15:27:25;5.97;;;5.37;;
980;SDS011;479;53.514;9.994;2023-05-10T15:29:52;6.53;;;5.93;;
980;SDS011;479;53.514;9.994;2023-05-10T15:32:19;6.20;;;5.60;;
980;SDS011;479;53.514;9.994;2023-05-10T15:34:47;5.87;;;5.27;;
980;SDS011;479;53.514;9.994;2023-05-10T15:37:14;9.43;;;8.03;;
980;SDS011;479;53.514;9.994;2023-05-10T15:39:41;6.03;;;5.47;;
980;SDS011;479;53.514;9.994;2023-05-10T15:42:08;5.93;;;5.40;;
980;SDS011;479;53.514;9.994;2023-05-10T15:44:35;5.83;;;5.33;;
980;SDS011;479;53.514;9.994;2023-05-10T15:47:03;5.90;;;5.00;;
980;SDS011;479;53.514;9.994;2023-05-10T15:49:31;8.20;;;6.03;;
980;SDS011;479;53.514;9.994;2023-05-10T15:52:00;7.77;;;6.07;;
980;SDS011;479;53.514;9.994;2023-05-10T15:54:27;7.17;;;6.27;;
980;SDS011;479;53.514;9.994;2023-05-10T15:56:55;6.87;;;6.17;;
980;SDS011;479;53.514;9.994;2023-05-10T15:59:22;6.20;;;5.60;;
980;SDS011;479;53.514;9.994;2023-05-10T16:01:49;5.63;;;5.10;;
980;SDS011;479;53.514;9.994;2023-05-10T16:04:17;5.87;;;5.37;;
980;SDS011;479;53.514;9.994;2023-05-10T16:06:44;7.50;;;5.90;;
980;SDS011;479;53.514;9.994;2023-05-10T16:09:12;10.00;;;5.90;;